createdAt,value
2023-02-18T00:00:22.016Z,69.60
2023-02-18T00:02:49.862Z,70.09
2023-02-18T00:05:18.300Z,70.65
2023-02-18T00:07:45.135Z,71.11
2023-02-18T00:10:13.643Z,70.81
2023-02-18T00:12:40.488Z,71.18
2023-02-18T00:15:07.392Z,71.19
2023-02-18T00:17:33.970Z,71.64
2023-02-18T00:20:00.626Z,71.88
2023-02-18T00:22:27.217Z,71.30
2023-02-18T00:24:53.863Z,71.37
2023-02-18T00:27:20.518Z,71.56
2023-02-18T00:29:47.095Z,71.33
2023-02-18T00:32:13.794Z,71.40
2023-02-18T00:34:40.444Z,71.58
2023-02-18T00:37:07.119Z,71.08
2023-02-18T00:39:33.713Z,71.77
2023-02-18T00:42:00.294Z,71.57
2023-02-18T00:44:26.886Z,71.70
2023-02-18T00:46:53.525Z,71.95
2023-02-18T00:49:20.144Z,72.43
2023-02-18T00:51:46.785Z,71.68
2023-02-18T00:54:13.576Z,72.42
2023-02-18T00:56:40.233Z,72.85
2023-02-18T00:59:06.934Z,72.11
2023-02-18T01:01:35.092Z,72.63
2023-02-18T01:04:02.055Z,72.92
2023-02-18T01:06:28.743Z,72.50
2023-02-18T01:08:55.616Z,72.17
2023-02-18T01:11:22.758Z,71.80
2023-02-18T01:13:50.761Z,72.93
2023-02-18T01:16:17.485Z,71.99
2023-02-18T01:18:45.949Z,72.71
2023-02-18T01:21:12.568Z,72.39
2023-02-18T01:23:40.939Z,73.36
2023-02-18T01:26:09.387Z,72.94
2023-02-18T01:28:38.047Z,72.74
2023-02-18T01:31:08.846Z,73.27
2023-02-18T01:33:35.851Z,72.76
2023-02-18T01:36:03.363Z,73.35
2023-02-18T01:38:30.414Z,72.56
2023-02-18T01:40:57.024Z,72.90
2023-02-18T01:43:23.710Z,73.16
2023-02-18T01:46:05.195Z,72.92
2023-02-18T01:48:46.626Z,73.73
2023-02-18T01:51:27.198Z,72.76
2023-02-18T01:54:02.665Z,74.39
2023-02-18T01:56:34.639Z,74.24
2023-02-18T01:59:06.229Z,75.19
2023-02-18T02:01:33.669Z,74.89
2023-02-18T02:04:01.283Z,75.36
2023-02-18T02:06:27.891Z,75.04
2023-02-18T02:08:59.417Z,74.99
2023-02-18T02:12:17.275Z,74.91
2023-02-18T02:15:05.413Z,74.13
2023-02-18T02:18:22.913Z,73.60
2023-02-18T02:21:37.782Z,73.36
2023-02-18T02:24:38.392Z,74.34
2023-02-18T02:27:23.238Z,74.27
2023-02-18T02:30:08.090Z,74.40
2023-02-18T02:32:53.711Z,74.02
2023-02-18T02:35:31.792Z,74.48
2023-02-18T02:38:01.378Z,74.72
2023-02-18T02:40:38.739Z,73.39
2023-02-18T02:43:32.076Z,74.33
2023-02-18T02:46:17.358Z,73.47
2023-02-18T02:48:51.356Z,74.52
2023-02-18T02:51:21.760Z,74.00
2023-02-18T02:53:48.402Z,73.04
2023-02-18T02:56:17.685Z,73.57
2023-02-18T02:58:50.345Z,73.44
2023-02-18T03:01:43.040Z,73.64
2023-02-18T03:04:21.825Z,74.26
2023-02-18T03:07:14.976Z,73.65
2023-02-18T03:10:05.909Z,74.01
2023-02-18T03:12:38.482Z,75.84
2023-02-18T03:15:09.276Z,76.54
2023-02-18T03:17:46.182Z,76.57
2023-02-18T03:20:23.981Z,74.73
2023-02-18T03:22:54.088Z,75.87
2023-02-18T03:25:23.435Z,76.51
2023-02-18T03:28:04.908Z,76.63
2023-02-18T03:30:39.426Z,76.96
2023-02-18T03:33:09.404Z,76.43
2023-02-18T03:35:37.902Z,76.89
2023-02-18T03:38:16.676Z,77.61
2023-02-18T03:40:43.602Z,76.84
2023-02-18T03:43:10.572Z,77.48
2023-02-18T03:45:38.074Z,76.91
2023-02-18T03:48:05.024Z,77.26
2023-02-18T03:50:31.901Z,77.80
2023-02-18T03:52:58.476Z,78.20
2023-02-18T03:55:25.063Z,78.44
2023-02-18T03:57:51.706Z,77.77
2023-02-18T04:00:19.112Z,78.11
2023-02-18T04:02:46.311Z,78.49
2023-02-18T04:05:13.574Z,78.52
2023-02-18T04:07:40.199Z,78.21
2023-02-18T04:10:08.467Z,77.79
2023-02-18T04:12:35.169Z,77.76
2023-02-18T04:15:01.839Z,76.95
2023-02-18T04:17:28.572Z,77.87
2023-02-18T04:19:55.233Z,77.51
2023-02-18T04:22:21.874Z,77.62
2023-02-18T04:24:48.465Z,78.10
2023-02-18T04:27:15.097Z,78.46
2023-02-18T04:29:41.982Z,78.94
2023-02-18T04:32:08.607Z,79.43
2023-02-18T04:34:35.364Z,78.94
2023-02-18T04:37:01.982Z,78.67
2023-02-18T04:39:28.641Z,78.29
2023-02-18T04:41:55.231Z,78.06
2023-02-18T04:44:21.862Z,77.71
2023-02-18T04:46:48.458Z,77.81
2023-02-18T04:49:15.005Z,77.39
2023-02-18T04:51:41.636Z,77.53
2023-02-18T04:54:08.293Z,77.90
2023-02-18T04:56:34.933Z,77.16
2023-02-18T04:59:01.560Z,76.91
2023-02-18T05:01:28.143Z,77.07
2023-02-18T05:03:54.744Z,77.25
2023-02-18T05:06:21.458Z,77.18
2023-02-18T05:08:48.093Z,77.40
2023-02-18T05:11:14.737Z,77.53
2023-02-18T05:13:41.416Z,77.70
2023-02-18T05:16:08.453Z,76.98
2023-02-18T05:18:35.212Z,77.20
2023-02-18T05:21:01.781Z,77.47
2023-02-18T05:23:28.440Z,77.11
2023-02-18T05:25:55.508Z,76.69
2023-02-18T05:28:22.298Z,76.80
2023-02-18T05:30:48.968Z,76.85
2023-02-18T05:33:15.627Z,76.90
2023-02-18T05:35:42.264Z,76.65
2023-02-18T05:38:09.943Z,76.42
2023-02-18T05:40:36.642Z,76.92
2023-02-18T05:43:03.387Z,77.09
2023-02-18T05:45:30.101Z,77.21
2023-02-18T05:47:56.620Z,77.71
2023-02-18T05:50:23.243Z,77.93
2023-02-18T05:52:49.969Z,77.49
2023-02-18T05:55:16.661Z,78.00
2023-02-18T05:57:43.526Z,77.37
2023-02-18T06:00:10.696Z,77.91
2023-02-18T06:02:38.313Z,78.21
2023-02-18T06:05:06.000Z,78.16
2023-02-18T06:07:32.629Z,77.80
2023-02-18T06:09:59.265Z,77.76
2023-02-18T06:12:26.045Z,76.97
2023-02-18T06:14:52.736Z,77.61
2023-02-18T06:17:19.831Z,77.03
2023-02-18T06:19:46.587Z,77.15
2023-02-18T06:22:13.202Z,77.10
2023-02-18T06:24:39.928Z,77.00
2023-02-18T06:27:06.922Z,76.91
2023-02-18T06:29:33.498Z,75.87
2023-02-18T06:32:00.367Z,76.87
2023-02-18T06:34:27.616Z,76.54
2023-02-18T06:36:54.254Z,77.08
2023-02-18T06:39:20.912Z,77.04
2023-02-18T06:41:47.562Z,77.11
2023-02-18T06:44:16.857Z,77.17
2023-02-18T06:46:44.377Z,77.17
2023-02-18T06:49:10.992Z,77.13
2023-02-18T06:51:37.772Z,77.03
2023-02-18T06:54:05.836Z,78.07
2023-02-18T06:56:32.866Z,77.39
2023-02-18T06:58:59.592Z,77.08
2023-02-18T07:01:26.209Z,76.78
2023-02-18T07:03:52.806Z,76.86
2023-02-18T07:06:19.512Z,76.39
2023-02-18T07:08:46.109Z,76.84
2023-02-18T07:11:12.657Z,77.03
2023-02-18T07:13:39.332Z,76.01
2023-02-18T07:16:06.433Z,75.56
2023-02-18T07:18:34.755Z,73.83
2023-02-18T07:21:01.547Z,74.18
2023-02-18T07:23:28.161Z,73.18
2023-02-18T07:26:12.787Z,70.86
2023-02-18T07:28:40.114Z,68.72
2023-02-18T07:31:08.160Z,67.25
2023-02-18T07:33:34.725Z,67.13
2023-02-18T07:36:02.613Z,67.18
2023-02-18T07:38:29.697Z,66.48
2023-02-18T07:40:57.312Z,65.82
2023-02-18T07:43:24.460Z,64.71
2023-02-18T07:45:51.176Z,64.18
2023-02-18T07:48:18.066Z,63.99
2023-02-18T07:50:46.058Z,62.36
2023-02-18T07:53:14.754Z,60.70
2023-02-18T07:55:50.263Z,60.28
2023-02-18T07:58:18.257Z,59.83
2023-02-18T08:00:45.191Z,58.09
2023-02-18T08:03:11.713Z,57.68
2023-02-18T08:05:38.401Z,55.76
2023-02-18T08:08:05.079Z,56.11
2023-02-18T08:10:32.218Z,54.59
2023-02-18T08:12:58.866Z,54.29
2023-02-18T08:15:25.502Z,53.78
2023-02-18T08:17:52.668Z,53.29
2023-02-18T08:20:19.380Z,51.10
2023-02-18T08:22:46.041Z,53.73
2023-02-18T08:25:24.123Z,52.54
2023-02-18T08:27:55.397Z,52.11
2023-02-18T08:30:22.080Z,51.92
2023-02-18T08:32:48.644Z,50.92
2023-02-18T08:35:15.343Z,50.06
2023-02-18T08:37:52.807Z,49.31
2023-02-18T08:40:20.911Z,48.02
2023-02-18T08:42:47.537Z,47.56
2023-02-18T08:45:14.133Z,46.37
2023-02-18T08:48:16.818Z,47.11
2023-02-18T08:50:28.313Z,48.50
2023-02-18T08:52:55.088Z,49.10
2023-02-18T08:55:21.805Z,50.13
2023-02-18T08:57:48.926Z,49.64
2023-02-18T09:00:17.193Z,48.93
2023-02-18T09:02:44.565Z,47.59
2023-02-18T09:05:12.387Z,47.84
2023-02-18T09:07:39.035Z,47.96
2023-02-18T09:10:06.853Z,47.01
2023-02-18T09:12:34.402Z,45.57
2023-02-18T09:15:01.787Z,44.16
2023-02-18T09:17:29.128Z,43.54
2023-02-18T09:19:55.726Z,42.30
2023-02-18T09:22:22.393Z,43.27
2023-02-18T09:24:49.136Z,44.02
2023-02-18T09:27:15.845Z,42.65
2023-02-18T09:29:42.657Z,43.86
2023-02-18T09:32:09.757Z,43.44
2023-02-18T09:34:36.635Z,42.54
2023-02-18T09:37:03.625Z,43.96
2023-02-18T09:39:30.293Z,44.80
2023-02-18T09:42:01.295Z,45.46
2023-02-18T09:44:31.156Z,44.66
2023-02-18T09:47:03.283Z,42.10
2023-02-18T09:49:35.468Z,44.09
2023-02-18T09:52:18.951Z,42.86
2023-02-18T09:54:45.614Z,42.75
2023-02-18T09:57:43.950Z,41.91
2023-02-18T10:00:15.665Z,42.46
2023-02-18T10:02:56.578Z,42.14
2023-02-18T10:05:26.341Z,41.66
2023-02-18T10:07:58.520Z,39.95
2023-02-18T10:10:41.938Z,41.11
2023-02-18T10:13:21.123Z,38.56
2023-02-18T10:15:49.486Z,39.36
2023-02-18T10:18:25.320Z,38.83
2023-02-18T10:20:57.312Z,38.63
2023-02-18T10:23:25.027Z,38.98
2023-02-18T10:25:52.283Z,38.29
2023-02-18T10:28:23.574Z,40.07
2023-02-18T10:30:59.461Z,39.37
2023-02-18T10:34:12.783Z,38.20
2023-02-18T10:37:04.417Z,39.06
2023-02-18T10:39:52.466Z,36.07
2023-02-18T10:42:38.895Z,36.86
2023-02-18T10:45:24.562Z,35.14
2023-02-18T10:48:12.963Z,36.70
2023-02-18T10:50:44.273Z,35.44
2023-02-18T10:53:22.502Z,35.33
2023-02-18T10:55:49.901Z,35.56
2023-02-18T10:58:42.574Z,34.45
2023-02-18T11:01:19.315Z,33.14
2023-02-18T11:03:51.263Z,33.00
2023-02-18T11:06:32.913Z,33.07
2023-02-18T11:09:01.996Z,32.39
2023-02-18T11:11:38.554Z,32.34
2023-02-18T11:14:07.749Z,31.49
2023-02-18T11:16:37.432Z,32.67
2023-02-18T11:19:04.549Z,32.42
2023-02-18T11:21:40.136Z,32.99
2023-02-18T11:24:10.144Z,32.80
2023-02-18T11:26:39.756Z,32.59
2023-02-18T11:29:15.857Z,32.46
2023-02-18T11:31:46.994Z,32.69
2023-02-18T11:34:20.922Z,32.60
2023-02-18T11:36:50.299Z,31.03
2023-02-18T11:39:24.428Z,31.17
2023-02-18T11:41:58.170Z,30.40
2023-02-18T11:44:42.248Z,28.93
2023-02-18T11:47:15.041Z,27.44
2023-02-18T11:49:43.899Z,26.82
2023-02-18T11:52:18.556Z,26.31
2023-02-18T11:55:05.250Z,26.46
2023-02-18T11:57:35.181Z,25.40
2023-02-18T12:00:03.916Z,25.01
2023-02-18T12:02:39.891Z,25.06
2023-02-18T12:05:17.215Z,24.54
2023-02-18T12:07:51.249Z,24.09
2023-02-18T12:10:30.176Z,25.26
2023-02-18T12:13:07.999Z,24.20
2023-02-18T12:15:55.267Z,26.09
2023-02-18T12:18:38.982Z,24.73
2023-02-18T12:21:12.750Z,23.99
2023-02-18T12:23:59.554Z,22.15
2023-02-18T12:26:29.878Z,22.05
2023-02-18T12:29:27.640Z,22.95
2023-02-18T12:32:05.735Z,23.37
2023-02-18T12:34:45.937Z,25.01
2023-02-18T12:37:31.267Z,24.27
2023-02-18T12:40:03.809Z,23.11
2023-02-18T12:43:01.417Z,22.16
2023-02-18T12:45:50.076Z,20.87
2023-02-18T12:49:04.446Z,20.90
2023-02-18T12:51:57.409Z,20.46
2023-02-18T12:54:47.508Z,19.67
2023-02-18T12:57:14.724Z,19.62
2023-02-18T13:00:16.745Z,19.51
2023-02-18T13:03:02.061Z,19.07
2023-02-18T13:05:28.873Z,19.36
2023-02-18T13:08:03.635Z,18.71
2023-02-18T13:10:33.399Z,19.95
2023-02-18T13:12:59.879Z,20.15
2023-02-18T13:15:48.088Z,19.81
2023-02-18T13:18:26.143Z,19.94
2023-02-18T13:20:58.167Z,20.12
2023-02-18T13:23:31.274Z,20.28
2023-02-18T13:26:02.128Z,19.51
2023-02-18T13:28:40.657Z,19.56
2023-02-18T13:31:37.986Z,18.24
2023-02-18T13:34:27.113Z,18.41
2023-02-18T13:37:16.348Z,18.05
2023-02-18T13:39:55.455Z,17.65
2023-02-18T13:42:33.813Z,16.97
2023-02-18T13:45:00.325Z,16.91
2023-02-18T13:47:40.897Z,17.26
2023-02-18T13:50:22.578Z,17.34
2023-02-18T13:53:09.469Z,17.62
2023-02-18T13:55:48.968Z,16.39
2023-02-18T13:58:41.276Z,16.81
2023-02-18T14:01:11.087Z,16.65
2023-02-18T14:03:44.096Z,16.74
2023-02-18T14:06:32.488Z,16.57
2023-02-18T14:09:04.450Z,17.37
2023-02-18T14:11:54.877Z,16.81
2023-02-18T14:14:27.488Z,17.62
2023-02-18T14:17:14.234Z,17.18
2023-02-18T14:19:41.104Z,17.68
2023-02-18T14:22:47.420Z,16.94
2023-02-18T14:25:13.979Z,17.47
2023-02-18T14:27:40.937Z,17.68
2023-02-18T14:30:23.075Z,17.30
2023-02-18T14:32:52.802Z,17.51
2023-02-18T14:35:44.170Z,17.27
2023-02-18T14:38:30.793Z,17.32
2023-02-18T14:41:26.418Z,17.58
2023-02-18T14:44:20.028Z,17.38
2023-02-18T14:47:05.910Z,17.41
2023-02-18T14:49:49.738Z,17.54
2023-02-18T14:52:37.911Z,17.60
2023-02-18T14:55:07.972Z,17.63
2023-02-18T14:57:44.592Z,17.58
2023-02-18T15:00:17.473Z,17.72
2023-02-18T15:02:44.138Z,17.83
2023-02-18T15:05:18.090Z,18.11
2023-02-18T15:08:08.696Z,18.67
2023-02-18T15:10:45.489Z,17.92
2023-02-18T15:13:23.761Z,18.51
2023-02-18T15:15:54.723Z,18.57
2023-02-18T15:18:33.505Z,18.74
2023-02-18T15:21:05.775Z,18.80
2023-02-18T15:23:36.765Z,18.65
2023-02-18T15:26:04.580Z,19.01
2023-02-18T15:28:33.643Z,18.65
2023-02-18T15:31:03.397Z,19.31
2023-02-18T15:33:30.281Z,19.93
2023-02-18T15:36:06.372Z,20.30
2023-02-18T15:38:33.673Z,19.88
2023-02-18T15:41:01.394Z,20.32
2023-02-18T15:43:28.142Z,20.56
2023-02-18T15:45:56.942Z,21.04
2023-02-18T15:48:51.378Z,21.57
2023-02-18T15:51:22.621Z,21.46
2023-02-18T15:53:53.654Z,21.20
2023-02-18T15:56:41.473Z,21.99
2023-02-18T15:59:20.750Z,22.22
2023-02-18T16:01:50.938Z,22.54
2023-02-18T16:04:18.122Z,22.50
2023-02-18T16:06:47.536Z,22.66
2023-02-18T16:09:17.080Z,22.83
2023-02-18T16:11:47.473Z,23.17
2023-02-18T16:14:27.366Z,23.53
2023-02-18T16:17:13.907Z,24.22
2023-02-18T16:20:08.953Z,24.23
2023-02-18T16:22:37.545Z,24.58
2023-02-18T16:25:13.332Z,25.36
2023-02-18T16:28:11.939Z,25.95
2023-02-18T16:30:41.504Z,26.35
2023-02-18T16:33:08.738Z,26.69
2023-02-18T16:35:49.072Z,27.68
2023-02-18T16:38:20.344Z,28.25
2023-02-18T16:40:47.642Z,29.03
2023-02-18T16:43:17.389Z,30.02
2023-02-18T16:45:49.516Z,30.88
2023-02-18T16:48:40.534Z,32.42
2023-02-18T16:51:12.405Z,33.12
2023-02-18T16:53:39.864Z,34.08
2023-02-18T16:56:14.245Z,35.07
2023-02-18T16:58:40.894Z,36.24
2023-02-18T17:01:33.629Z,36.84
2023-02-18T17:04:02.099Z,37.89
2023-02-18T17:06:29.474Z,38.76
2023-02-18T17:08:56.203Z,39.71
2023-02-18T17:11:29.944Z,40.04
2023-02-18T17:14:00.281Z,40.06
2023-02-18T17:16:27.861Z,40.26
2023-02-18T17:18:54.626Z,40.42
2023-02-18T17:21:24.134Z,40.53
2023-02-18T17:23:51.404Z,40.85
2023-02-18T17:26:19.964Z,41.19
2023-02-18T17:28:47.108Z,41.09
2023-02-18T17:31:18.212Z,41.25
2023-02-18T17:33:46.537Z,41.85
2023-02-18T17:36:13.275Z,42.01
2023-02-18T17:38:40.291Z,42.52
2023-02-18T17:41:08.152Z,42.61
2023-02-18T17:43:35.271Z,43.45
2023-02-18T17:46:02.011Z,43.72
2023-02-18T17:48:29.735Z,44.70
2023-02-18T17:50:56.575Z,44.45
2023-02-18T17:53:23.594Z,45.06
2023-02-18T17:55:50.908Z,45.77
2023-02-18T17:58:18.131Z,45.50
2023-02-18T18:00:56.213Z,45.51
2023-02-18T18:03:23.471Z,46.04
2023-02-18T18:05:56.565Z,46.24
2023-02-18T18:08:23.340Z,46.17
2023-02-18T18:10:55.964Z,46.06
2023-02-18T18:13:34.291Z,45.90
2023-02-18T18:16:01.289Z,45.92
2023-02-18T18:18:27.922Z,46.74
2023-02-18T18:20:59.043Z,46.52
2023-02-18T18:23:25.920Z,47.28
2023-02-18T18:25:55.865Z,47.62
2023-02-18T18:28:23.324Z,47.37
2023-02-18T18:30:52.731Z,48.21
2023-02-18T18:33:28.889Z,48.30
2023-02-18T18:35:57.506Z,49.19
2023-02-18T18:38:25.975Z,49.19
2023-02-18T18:40:54.645Z,49.38
2023-02-18T18:43:25.250Z,49.63
2023-02-18T18:45:53.142Z,49.39
2023-02-18T18:48:21.389Z,49.97
2023-02-18T18:50:49.327Z,50.84
2023-02-18T18:53:28.267Z,51.16
2023-02-18T18:55:58.363Z,51.37
2023-02-18T18:58:25.664Z,51.65
2023-02-18T19:00:58.774Z,51.66
2023-02-18T19:03:28.291Z,51.66
2023-02-18T19:05:55.688Z,51.76
2023-02-18T19:08:22.687Z,52.68
2023-02-18T19:10:58.491Z,53.12
2023-02-18T19:13:30.363Z,52.34
2023-02-18T19:16:01.722Z,52.78
2023-02-18T19:18:29.022Z,53.25
2023-02-18T19:20:56.308Z,53.38
2023-02-18T19:23:22.992Z,53.79
2023-02-18T19:25:49.601Z,54.19
2023-02-18T19:28:16.272Z,54.22
2023-02-18T19:30:43.176Z,54.10
2023-02-18T19:33:12.701Z,54.27
2023-02-18T19:35:40.428Z,54.97
2023-02-18T19:38:10.099Z,54.42
2023-02-18T19:40:37.825Z,54.75
2023-02-18T19:43:05.008Z,54.85
2023-02-18T19:45:32.612Z,55.11
2023-02-18T19:48:00.405Z,54.66
2023-02-18T19:50:28.710Z,54.71
2023-02-18T19:52:55.900Z,54.68
2023-02-18T19:55:23.427Z,55.37
2023-02-18T19:57:51.017Z,55.32
2023-02-18T20:00:20.850Z,56.09
2023-02-18T20:02:47.518Z,57.35
2023-02-18T20:05:15.004Z,57.60
2023-02-18T20:07:42.150Z,56.70
2023-02-18T20:10:13.702Z,59.33
2023-02-18T20:12:40.919Z,58.54
2023-02-18T20:15:08.137Z,58.86
2023-02-18T20:17:34.964Z,58.59
2023-02-18T20:20:01.602Z,59.45
2023-02-18T20:22:28.537Z,60.16
2023-02-18T20:24:55.221Z,60.16
2023-02-18T20:27:21.918Z,60.43
2023-02-18T20:29:48.809Z,60.72
2023-02-18T20:32:18.389Z,60.51
2023-02-18T20:34:45.559Z,60.80
2023-02-18T20:37:12.329Z,61.18
2023-02-18T20:39:39.029Z,61.50
2023-02-18T20:42:15.884Z,61.32
2023-02-18T20:44:44.194Z,61.25
2023-02-18T20:47:13.459Z,61.75
2023-02-18T20:49:40.573Z,61.67
2023-02-18T20:52:08.329Z,62.17
2023-02-18T20:54:34.978Z,61.62
2023-02-18T20:57:02.154Z,62.40
2023-02-18T20:59:29.802Z,62.81
2023-02-18T21:01:57.709Z,63.45
2023-02-18T21:04:24.380Z,63.06
2023-02-18T21:06:51.028Z,63.56
2023-02-18T21:09:18.783Z,63.76
2023-02-18T21:11:45.895Z,63.42
2023-02-18T21:14:12.698Z,63.78
2023-02-18T21:16:39.803Z,64.06
2023-02-18T21:19:13.611Z,64.62
2023-02-18T21:21:41.372Z,64.00
2023-02-18T21:24:08.059Z,64.23
2023-02-18T21:26:34.811Z,64.83
2023-02-18T21:29:05.585Z,65.06
2023-02-18T21:31:35.257Z,65.00
2023-02-18T21:34:03.441Z,65.01
2023-02-18T21:36:31.493Z,65.40
2023-02-18T21:39:02.463Z,65.43
2023-02-18T21:41:30.269Z,65.80
2023-02-18T21:43:57.052Z,64.71
2023-02-18T21:46:29.203Z,64.95
2023-02-18T21:49:02.926Z,65.60
2023-02-18T21:51:51.371Z,66.03
2023-02-18T21:54:20.080Z,65.89
2023-02-18T21:56:46.976Z,65.75
2023-02-18T21:59:13.714Z,66.46
2023-02-18T22:01:41.204Z,65.76
2023-02-18T22:04:07.915Z,66.15
2023-02-18T22:06:34.782Z,66.66
2023-02-18T22:09:01.910Z,67.53
2023-02-18T22:11:29.941Z,66.20
2023-02-18T22:13:57.384Z,67.91
2023-02-18T22:16:26.668Z,67.09
2023-02-18T22:18:53.997Z,68.21
2023-02-18T22:21:21.196Z,67.52
2023-02-18T22:23:47.927Z,67.47
2023-02-18T22:26:15.116Z,68.55
2023-02-18T22:28:41.761Z,68.69
2023-02-18T22:31:13.290Z,68.52
2023-02-18T22:33:41.334Z,68.57
2023-02-18T22:36:08.800Z,68.53
2023-02-18T22:38:36.995Z,68.68
2023-02-18T22:41:05.765Z,69.21
2023-02-18T22:43:32.458Z,69.11
2023-02-18T22:46:11.356Z,69.40
2023-02-18T22:48:38.552Z,69.10
2023-02-18T22:51:12.287Z,70.00
2023-02-18T22:53:39.786Z,69.20
2023-02-18T22:56:08.843Z,69.44
2023-02-18T22:58:36.404Z,69.08
2023-02-18T23:01:04.578Z,69.47
2023-02-18T23:03:31.395Z,70.17
2023-02-18T23:06:03.141Z,69.35
2023-02-18T23:08:30.941Z,69.57
2023-02-18T23:11:06.973Z,70.11
2023-02-18T23:13:33.672Z,70.40
2023-02-18T23:16:06.968Z,70.57
2023-02-18T23:18:35.533Z,70.72
2023-02-18T23:21:22.989Z,70.55
2023-02-18T23:23:55.469Z,70.46
2023-02-18T23:26:25.732Z,70.94
2023-02-18T23:28:53.290Z,70.43
2023-02-18T23:31:24.295Z,71.13
2023-02-18T23:33:55.053Z,71.69
2023-02-18T23:36:24.229Z,71.50
2023-02-18T23:38:53.156Z,71.24
2023-02-18T23:41:20.952Z,71.35
2023-02-18T23:43:48.041Z,71.30
2023-02-18T23:46:15.569Z,72.24
2023-02-18T23:48:42.300Z,71.94
2023-02-18T23:51:11.060Z,71.90
2023-02-18T23:53:38.046Z,72.50
2023-02-18T23:56:07.729Z,72.91
2023-02-18T23:58:35.360Z,72.13
